createdAt,value
2023-05-06T00:01:36.950Z,13.65
2023-05-06T00:04:39.774Z,13.66
2023-05-06T00:07:42.671Z,13.67
2023-05-06T00:10:45.303Z,13.64
2023-05-06T00:13:48.107Z,13.63
2023-05-06T00:16:51.220Z,13.72
2023-05-06T00:19:53.649Z,13.77
2023-05-06T00:22:56.136Z,13.57
2023-05-06T00:25:59.135Z,13.38
2023-05-06T00:29:01.611Z,13.32
2023-05-06T00:32:04.638Z,13.22
2023-05-06T00:35:07.288Z,13.36
2023-05-06T00:38:12.309Z,13.35
2023-05-06T00:41:14.985Z,13.17
2023-05-06T00:44:17.389Z,13.24
2023-05-06T00:47:20.064Z,13.25
2023-05-06T00:50:22.859Z,13.16
2023-05-06T00:53:25.449Z,13.12
2023-05-06T00:56:28.268Z,13.09
2023-05-06T00:59:31.402Z,13.11
2023-05-06T01:02:46.187Z,13.13
2023-05-06T01:06:24.333Z,13.18
2023-05-06T01:09:43.132Z,13.15
2023-05-06T01:13:07.363Z,13.26
2023-05-06T01:16:10.025Z,13.11
2023-05-06T01:19:18.166Z,13.07
2023-05-06T01:22:20.777Z,13.13
2023-05-06T01:25:23.708Z,13.06
2023-05-06T01:28:26.357Z,12.94
2023-05-06T01:31:48.206Z,12.99
2023-05-06T01:35:32.811Z,12.99
2023-05-06T01:38:39.883Z,13.17
2023-05-06T01:41:42.546Z,13.27
2023-05-06T01:44:46.141Z,13.30
2023-05-06T01:47:48.611Z,13.34
2023-05-06T01:50:51.125Z,13.24
2023-05-06T01:53:53.634Z,13.18
2023-05-06T01:56:56.170Z,13.22
2023-05-06T01:59:58.832Z,13.25
2023-05-06T02:03:01.707Z,13.25
2023-05-06T02:06:04.913Z,13.25
2023-05-06T02:09:12.725Z,13.13
2023-05-06T02:12:19.428Z,13.15
2023-05-06T02:15:22.340Z,13.18
2023-05-06T02:18:25.517Z,13.05
2023-05-06T02:21:28.153Z,12.88
2023-05-06T02:24:30.645Z,12.79
2023-05-06T02:27:33.135Z,12.67
2023-05-06T02:30:39.245Z,12.62
2023-05-06T02:33:42.097Z,12.84
2023-05-06T02:36:45.959Z,12.89
2023-05-06T02:39:48.388Z,12.75
2023-05-06T02:42:51.053Z,12.73
2023-05-06T02:45:53.988Z,12.72
2023-05-06T02:48:56.488Z,12.54
2023-05-06T02:51:59.361Z,12.49
2023-05-06T02:55:02.202Z,12.58
2023-05-06T02:58:04.856Z,12.64
2023-05-06T03:01:07.472Z,12.51
2023-05-06T03:04:10.376Z,12.61
2023-05-06T03:07:13.336Z,12.59
2023-05-06T03:10:16.660Z,12.43
2023-05-06T03:13:19.287Z,12.33
2023-05-06T03:16:22.631Z,12.26
2023-05-06T03:19:28.413Z,12.24
2023-05-06T03:22:31.079Z,12.27
2023-05-06T03:25:34.266Z,12.27
2023-05-06T03:28:37.331Z,12.37
2023-05-06T03:31:42.001Z,12.37
2023-05-06T03:34:45.310Z,12.40
2023-05-06T03:37:52.612Z,12.56
2023-05-06T03:40:59.211Z,12.71
2023-05-06T03:44:02.834Z,12.77
2023-05-06T03:47:06.242Z,12.87
2023-05-06T03:50:10.219Z,12.88
2023-05-06T03:53:14.660Z,13.02
2023-05-06T03:56:22.084Z,13.02
2023-05-06T03:59:27.679Z,13.05
2023-05-06T04:02:35.175Z,13.02
2023-05-06T04:05:38.800Z,13.11
2023-05-06T04:08:41.179Z,13.19
2023-05-06T04:11:43.504Z,13.22
2023-05-06T04:14:49.369Z,13.27
2023-05-06T04:17:52.661Z,13.39
2023-05-06T04:20:56.675Z,13.39
2023-05-06T04:24:00.893Z,13.54
2023-05-06T04:27:09.459Z,13.33
2023-05-06T04:30:13.535Z,13.43
2023-05-06T04:33:16.618Z,13.50
2023-05-06T04:36:20.208Z,13.77
2023-05-06T04:39:39.514Z,13.84
2023-05-06T04:42:43.412Z,13.83
2023-05-06T04:45:52.979Z,13.95
2023-05-06T04:49:00.588Z,14.10
2023-05-06T04:52:03.652Z,14.17
2023-05-06T04:55:07.318Z,14.28
2023-05-06T04:58:12.656Z,14.34
2023-05-06T05:01:15.685Z,14.45
2023-05-06T05:04:18.517Z,14.53
2023-05-06T05:07:21.188Z,14.55
2023-05-06T05:10:23.681Z,14.60
2023-05-06T05:13:27.920Z,14.62
2023-05-06T05:16:31.828Z,14.61
2023-05-06T05:19:36.608Z,14.78
2023-05-06T05:22:39.318Z,14.73
2023-05-06T05:25:42.031Z,14.82
2023-05-06T05:28:44.677Z,14.92
2023-05-06T05:31:48.779Z,15.11
2023-05-06T05:34:51.721Z,15.15
2023-05-06T05:37:54.848Z,15.28
2023-05-06T05:40:57.969Z,15.39
2023-05-06T05:44:01.500Z,15.39
2023-05-06T05:47:05.098Z,15.47
2023-05-06T05:50:09.216Z,15.52
2023-05-06T05:53:13.017Z,15.62
2023-05-06T05:56:16.804Z,15.82
2023-05-06T05:59:20.563Z,15.99
2023-05-06T06:02:26.419Z,16.12
2023-05-06T06:05:29.069Z,16.28
2023-05-06T06:08:33.526Z,16.44
2023-05-06T06:11:37.616Z,16.58
2023-05-06T06:14:41.867Z,16.69
2023-05-06T06:17:45.255Z,16.89
2023-05-06T06:20:48.574Z,17.08
2023-05-06T06:23:51.823Z,17.30
2023-05-06T06:26:55.525Z,17.38
2023-05-06T06:29:58.555Z,17.58
2023-05-06T06:33:01.543Z,17.74
2023-05-06T06:36:04.697Z,17.86
2023-05-06T06:39:07.636Z,17.93
2023-05-06T06:42:09.890Z,18.10
2023-05-06T06:45:24.661Z,18.26
2023-05-06T06:48:27.245Z,18.37
2023-05-06T06:51:29.874Z,18.45
2023-05-06T06:54:32.463Z,18.60
2023-05-06T06:57:35.023Z,18.70
2023-05-06T07:00:37.554Z,18.83
2023-05-06T07:03:40.405Z,19.08
2023-05-06T07:06:43.105Z,19.21
2023-05-06T07:09:45.605Z,19.35
2023-05-06T07:12:48.353Z,19.58
2023-05-06T07:15:50.887Z,19.75
2023-05-06T07:18:53.920Z,19.87
2023-05-06T07:21:57.029Z,20.09
2023-05-06T07:24:59.773Z,20.35
2023-05-06T07:28:02.694Z,20.52
2023-05-06T07:31:05.645Z,20.68
2023-05-06T07:34:08.441Z,20.77
2023-05-06T07:37:11.211Z,20.95
2023-05-06T07:40:13.714Z,20.92
2023-05-06T07:43:16.277Z,20.84
2023-05-06T07:46:18.748Z,21.13
2023-05-06T07:49:21.198Z,21.42
2023-05-06T07:52:24.531Z,21.75
2023-05-06T07:55:28.458Z,21.87
2023-05-06T07:58:31.600Z,22.00
2023-05-06T08:01:34.232Z,22.12
2023-05-06T08:04:37.103Z,22.39
2023-05-06T08:07:41.470Z,22.51
2023-05-06T08:10:44.364Z,22.70
2023-05-06T08:13:47.351Z,22.94
2023-05-06T08:16:50.480Z,23.26
2023-05-06T08:19:53.203Z,23.36
2023-05-06T08:22:55.521Z,23.31
2023-05-06T08:25:59.264Z,23.55
2023-05-06T08:29:03.250Z,23.20
2023-05-06T08:32:06.755Z,23.54
2023-05-06T08:35:10.465Z,23.84
2023-05-06T08:38:13.518Z,24.18
2023-05-06T08:41:15.821Z,24.22
2023-05-06T08:44:19.362Z,24.08
2023-05-06T08:47:22.188Z,24.01
2023-05-06T08:50:24.957Z,24.36
2023-05-06T08:53:27.535Z,24.51
2023-05-06T08:56:33.621Z,24.19
2023-05-06T08:59:36.304Z,24.48
2023-05-06T09:02:42.184Z,24.82
2023-05-06T09:05:45.735Z,25.23
2023-05-06T09:08:48.544Z,25.72
2023-05-06T09:11:54.202Z,26.06
2023-05-06T09:14:57.206Z,26.13
2023-05-06T09:17:59.820Z,25.73
2023-05-06T09:21:03.880Z,25.79
2023-05-06T09:24:07.389Z,25.95
2023-05-06T09:27:10.918Z,25.05
2023-05-06T09:30:14.601Z,25.18
2023-05-06T09:33:17.246Z,25.15
2023-05-06T09:36:20.198Z,25.03
2023-05-06T09:39:26.820Z,25.69
2023-05-06T09:42:29.942Z,26.02
2023-05-06T09:45:33.229Z,25.41
2023-05-06T09:48:36.517Z,24.99
2023-05-06T09:51:39.597Z,24.63
2023-05-06T09:54:42.324Z,24.14
2023-05-06T09:57:44.906Z,24.20
2023-05-06T10:00:47.447Z,25.34
2023-05-06T10:03:51.893Z,26.00
2023-05-06T10:06:56.628Z,26.01
2023-05-06T10:09:59.108Z,25.69
2023-05-06T10:13:04.726Z,25.64
2023-05-06T10:16:07.978Z,25.06
2023-05-06T10:19:10.611Z,25.61
2023-05-06T10:22:40.598Z,26.13
2023-05-06T10:25:44.289Z,27.59
2023-05-06T10:28:47.045Z,26.98
2023-05-06T10:31:54.240Z,27.69
2023-05-06T10:34:57.241Z,26.96
2023-05-06T10:37:59.700Z,27.40
2023-05-06T10:41:02.407Z,27.54
2023-05-06T10:44:06.326Z,28.06
2023-05-06T10:47:09.469Z,28.90
2023-05-06T10:50:27.792Z,28.74
2023-05-06T10:54:05.717Z,28.22
2023-05-06T10:57:09.261Z,29.58
2023-05-06T11:00:13.314Z,29.83
2023-05-06T11:03:18.827Z,30.06
2023-05-06T11:06:34.433Z,29.90
2023-05-06T11:10:00.324Z,30.65
2023-05-06T11:13:22.345Z,30.86
2023-05-06T11:16:46.844Z,31.08
2023-05-06T11:19:49.396Z,31.50
2023-05-06T11:22:52.744Z,30.59
2023-05-06T11:25:56.580Z,28.51
2023-05-06T11:28:59.630Z,27.45
2023-05-06T11:32:02.212Z,27.17
2023-05-06T11:35:05.257Z,27.48
2023-05-06T11:38:07.901Z,27.14
2023-05-06T11:41:10.903Z,28.51
2023-05-06T11:44:24.119Z,28.30
2023-05-06T11:47:26.557Z,28.00
2023-05-06T11:50:29.174Z,29.24
2023-05-06T11:53:31.769Z,28.84
2023-05-06T11:56:51.003Z,31.43
2023-05-06T11:59:54.589Z,30.20
2023-05-06T12:02:57.370Z,28.98
2023-05-06T12:05:59.903Z,27.63
2023-05-06T12:09:07.549Z,27.14
2023-05-06T12:12:10.539Z,26.59
2023-05-06T12:15:13.089Z,26.48
2023-05-06T12:18:15.599Z,26.10
2023-05-06T12:21:22.691Z,25.84
2023-05-06T12:24:29.380Z,25.35
2023-05-06T12:27:33.287Z,25.15
2023-05-06T12:30:35.829Z,25.05
2023-05-06T12:33:45.587Z,24.89
2023-05-06T12:36:48.158Z,25.06
2023-05-06T12:39:50.847Z,25.10
2023-05-06T12:42:56.307Z,25.21
2023-05-06T12:46:08.223Z,25.23
2023-05-06T12:49:10.775Z,25.09
2023-05-06T12:52:13.345Z,24.95
2023-05-06T12:55:16.052Z,24.85
2023-05-06T12:58:19.001Z,24.80
2023-05-06T13:01:22.248Z,24.51
2023-05-06T13:04:27.447Z,24.48
2023-05-06T13:07:30.763Z,24.53
2023-05-06T13:10:33.556Z,24.31
2023-05-06T13:13:36.209Z,24.11
2023-05-06T13:16:38.773Z,24.12
2023-05-06T13:19:41.390Z,24.01
2023-05-06T13:22:54.261Z,24.25
2023-05-06T13:26:04.307Z,24.29
2023-05-06T13:29:07.957Z,23.95
2023-05-06T13:32:10.678Z,24.05
2023-05-06T13:35:13.544Z,24.19
2023-05-06T13:38:16.189Z,23.78
2023-05-06T13:41:19.707Z,23.69
2023-05-06T13:44:22.886Z,23.66
2023-05-06T13:47:26.977Z,23.66
2023-05-06T13:50:30.610Z,23.63
2023-05-06T13:53:33.854Z,23.52
2023-05-06T13:56:37.066Z,23.48
2023-05-06T13:59:39.662Z,23.41
2023-05-06T14:02:43.094Z,23.41
2023-05-06T14:05:46.226Z,23.21
2023-05-06T14:08:48.650Z,22.97
2023-05-06T14:11:51.926Z,22.77
2023-05-06T14:14:54.385Z,22.47
2023-05-06T14:17:57.909Z,22.57
2023-05-06T14:21:00.552Z,22.55
2023-05-06T14:24:04.627Z,22.60
2023-05-06T14:27:08.313Z,22.38
2023-05-06T14:30:11.099Z,22.08
2023-05-06T14:33:13.853Z,21.95
2023-05-06T14:36:19.913Z,21.45
2023-05-06T14:39:22.291Z,21.26
2023-05-06T14:42:24.728Z,21.01
2023-05-06T14:45:27.402Z,20.98
2023-05-06T14:48:31.700Z,20.83
2023-05-06T14:51:34.767Z,20.86
2023-05-06T14:54:58.190Z,20.86
2023-05-06T14:58:00.630Z,20.92
2023-05-06T15:01:03.263Z,20.80
2023-05-06T15:04:05.921Z,20.79
2023-05-06T15:07:08.638Z,20.54
2023-05-06T15:10:11.368Z,20.61
2023-05-06T15:13:16.875Z,20.46
2023-05-06T15:16:19.516Z,20.34
2023-05-06T15:19:22.176Z,20.34
2023-05-06T15:22:24.796Z,20.36
2023-05-06T15:25:35.810Z,20.32
2023-05-06T15:28:39.312Z,20.26
2023-05-06T15:31:44.189Z,20.28
2023-05-06T15:34:46.739Z,20.41
2023-05-06T15:37:49.317Z,20.37
2023-05-06T15:40:52.261Z,20.28
2023-05-06T15:43:56.351Z,20.26
2023-05-06T15:46:58.756Z,20.12
2023-05-06T15:50:01.727Z,20.12
2023-05-06T15:53:04.303Z,20.15
2023-05-06T15:56:17.246Z,20.23
2023-05-06T15:59:21.211Z,20.10
2023-05-06T16:02:27.241Z,20.10
2023-05-06T16:05:29.963Z,20.11
2023-05-06T16:08:32.637Z,20.31
2023-05-06T16:11:35.202Z,20.47
2023-05-06T16:14:38.120Z,20.79
2023-05-06T16:17:41.127Z,21.04
2023-05-06T16:20:43.710Z,21.18
2023-05-06T16:23:46.197Z,21.21
2023-05-06T16:26:48.942Z,21.28
2023-05-06T16:29:51.628Z,21.25
2023-05-06T16:32:54.160Z,21.27
2023-05-06T16:35:57.354Z,21.17
2023-05-06T16:38:59.912Z,20.97
2023-05-06T16:42:02.632Z,20.79
2023-05-06T16:45:05.482Z,20.58
2023-05-06T16:48:08.293Z,20.48
2023-05-06T16:51:12.321Z,20.27
2023-05-06T16:54:14.929Z,20.11
2023-05-06T16:57:17.759Z,20.05
2023-05-06T17:00:21.135Z,20.01
2023-05-06T17:03:24.238Z,19.99
2023-05-06T17:06:32.104Z,19.87
2023-05-06T17:09:34.802Z,19.81
2023-05-06T17:12:37.503Z,19.83
2023-05-06T17:15:47.729Z,19.80
2023-05-06T17:18:53.738Z,19.76
2023-05-06T17:21:59.522Z,19.61
2023-05-06T17:25:02.800Z,19.52
2023-05-06T17:28:05.352Z,19.50
2023-05-06T17:31:07.800Z,19.48
2023-05-06T17:34:10.270Z,19.50
2023-05-06T17:37:12.914Z,19.42
2023-05-06T17:40:15.370Z,19.35
2023-05-06T17:43:17.885Z,19.30
2023-05-06T17:46:20.719Z,19.28
2023-05-06T17:49:23.755Z,19.33
2023-05-06T17:52:26.687Z,19.26
2023-05-06T17:55:29.410Z,19.17
2023-05-06T17:58:32.024Z,19.18
2023-05-06T18:01:34.994Z,19.10
2023-05-06T18:04:37.576Z,19.07
2023-05-06T18:07:42.929Z,19.00
2023-05-06T18:10:45.575Z,18.99
2023-05-06T18:13:48.214Z,18.98
2023-05-06T18:16:50.991Z,18.92
2023-05-06T18:19:53.730Z,18.89
2023-05-06T18:22:56.448Z,18.88
2023-05-06T18:25:59.366Z,18.88
2023-05-06T18:29:04.145Z,18.87
2023-05-06T18:32:06.858Z,18.94
2023-05-06T18:35:10.961Z,18.94
2023-05-06T18:38:15.184Z,18.89
2023-05-06T18:41:18.031Z,18.95
2023-05-06T18:44:20.928Z,18.83
2023-05-06T18:47:25.750Z,18.76
2023-05-06T18:50:28.557Z,18.77
2023-05-06T18:53:31.002Z,18.80
2023-05-06T18:56:33.608Z,18.77
2023-05-06T18:59:36.319Z,18.74
2023-05-06T19:02:39.105Z,18.67
2023-05-06T19:05:41.838Z,18.64
2023-05-06T19:08:44.109Z,18.68
2023-05-06T19:11:46.821Z,18.62
2023-05-06T19:14:50.717Z,18.41
2023-05-06T19:17:54.026Z,18.31
2023-05-06T19:20:56.773Z,18.27
2023-05-06T19:23:59.848Z,18.29
2023-05-06T19:27:03.818Z,18.19
2023-05-06T19:30:07.471Z,18.11
2023-05-06T19:33:10.033Z,18.08
2023-05-06T19:36:12.592Z,18.08
2023-05-06T19:39:16.449Z,18.09
2023-05-06T19:42:19.352Z,18.01
2023-05-06T19:45:21.912Z,18.02
2023-05-06T19:48:24.532Z,18.09
2023-05-06T19:51:28.383Z,18.08
2023-05-06T19:54:31.040Z,18.16
2023-05-06T19:57:33.994Z,18.04
2023-05-06T20:00:36.497Z,17.96
2023-05-06T20:03:39.353Z,17.97
2023-05-06T20:06:42.118Z,17.87
2023-05-06T20:09:45.675Z,17.89
2023-05-06T20:12:48.365Z,17.86
2023-05-06T20:15:51.067Z,17.88
2023-05-06T20:18:53.684Z,17.89
2023-05-06T20:21:57.289Z,17.79
2023-05-06T20:25:14.516Z,17.83
2023-05-06T20:28:18.593Z,17.82
2023-05-06T20:31:21.407Z,17.71
2023-05-06T20:34:26.786Z,17.74
2023-05-06T20:37:30.935Z,17.78
2023-05-06T20:40:35.750Z,17.75
2023-05-06T20:43:38.656Z,17.69
2023-05-06T20:46:41.439Z,17.71
2023-05-06T20:49:44.344Z,17.72
2023-05-06T20:52:47.101Z,17.76
2023-05-06T20:55:49.850Z,17.75
2023-05-06T20:58:52.923Z,17.71
2023-05-06T21:01:56.377Z,17.64
2023-05-06T21:04:59.515Z,17.73
2023-05-06T21:08:02.055Z,17.77
2023-05-06T21:11:05.459Z,17.79
2023-05-06T21:14:08.188Z,17.76
2023-05-06T21:17:10.656Z,17.76
2023-05-06T21:20:13.430Z,17.85
2023-05-06T21:23:16.360Z,17.75
2023-05-06T21:26:19.077Z,17.73
2023-05-06T21:29:21.649Z,17.78
2023-05-06T21:32:24.443Z,17.73
2023-05-06T21:35:27.030Z,17.69
2023-05-06T21:38:29.832Z,17.61
2023-05-06T21:41:35.360Z,17.57
2023-05-06T21:44:37.873Z,17.42
2023-05-06T21:47:40.907Z,17.45
2023-05-06T21:50:43.499Z,17.18
2023-05-06T21:53:50.580Z,17.13
2023-05-06T21:56:53.087Z,17.19
2023-05-06T21:59:55.540Z,17.28
2023-05-06T22:02:58.791Z,17.16
2023-05-06T22:06:01.344Z,17.31
2023-05-06T22:09:08.752Z,17.38
2023-05-06T22:12:12.738Z,17.36
2023-05-06T22:15:16.247Z,17.30
2023-05-06T22:18:18.981Z,17.29
2023-05-06T22:21:21.941Z,17.29
2023-05-06T22:24:26.165Z,17.29
2023-05-06T22:27:29.106Z,17.24
2023-05-06T22:30:31.606Z,17.15
2023-05-06T22:33:34.997Z,17.18
2023-05-06T22:36:37.272Z,17.20
2023-05-06T22:39:39.608Z,17.17
2023-05-06T22:42:42.116Z,16.98
2023-05-06T22:45:44.659Z,17.03
2023-05-06T22:48:47.135Z,17.01
2023-05-06T22:51:49.616Z,17.12
2023-05-06T22:54:52.614Z,17.07
2023-05-06T22:57:55.162Z,16.93
2023-05-06T23:00:57.970Z,16.90
2023-05-06T23:04:00.671Z,16.82
2023-05-06T23:07:03.393Z,16.81
2023-05-06T23:10:06.811Z,16.84
2023-05-06T23:13:09.322Z,16.96
2023-05-06T23:16:12.053Z,17.00
2023-05-06T23:19:14.300Z,17.02
2023-05-06T23:22:16.541Z,16.98
2023-05-06T23:25:19.785Z,16.95
2023-05-06T23:28:22.470Z,16.74
2023-05-06T23:31:25.114Z,16.63
2023-05-06T23:34:27.524Z,16.68
2023-05-06T23:37:29.958Z,16.49
2023-05-06T23:40:32.443Z,16.41
2023-05-06T23:43:34.915Z,16.34
2023-05-06T23:46:37.455Z,16.34
2023-05-06T23:49:39.936Z,16.26
2023-05-06T23:52:42.489Z,16.15
2023-05-06T23:55:44.905Z,16.19
2023-05-06T23:58:47.651Z,16.05
